sensor_id;sensor_type;location;lat;lon;timestamp;P1;durP1;ratioP1;P2;durP2;ratioP2
63690;SDS011;49837;57.280;27.070;2023-12-14T00:00:15;19.4;;;11.5;;
63690;SDS011;49837;57.280;27.070;2023-12-14T00:01:15;21.2;;;11.7;;
63690;SDS011;49837;57.280;27.070;2023-12-14T00:02:16;21.1;;;11.6;;
63690;SDS011;49837;57.280;27.070;2023-12-14T00:03:16;19.7;;;11.6;;
63690;SDS011;49837;57.280;27.070;2023-12-14T00:04:16;20.0;;;11.7;;
63690;SDS011;49837;57.280;27.070;2023-12-14T00:05:16;21.5;;;12.7;;
63690;SDS011;49837;57.280;27.070;2023-12-14T00:06:17;23.1;;;13.3;;
63690;SDS011;49837;57.280;27.070;2023-12-14T00:07:17;22.4;;;13.1;;
63690;SDS011;49837;57.280;27.070;2023-12-14T00:08:18;23.2;;;13.1;;
63690;SDS011;49837;57.280;27.070;2023-12-14T00:09:18;22.2;;;13.2;;
63690;SDS011;49837;57.280;27.070;2023-12-14T00:10:18;25.6;;;13.7;;
63690;SDS011;49837;57.280;27.070;2023-12-14T00:11:18;25.2;;;13.4;;
63690;SDS011;49837;57.280;27.070;2023-12-14T00:12:19;24.5;;;13.0;;
63690;SDS011;49837;57.280;27.070;2023-12-14T00:13:19;24.8;;;13.8;;
63690;SDS011;49837;57.280;27.070;2023-12-14T00:14:19;24.6;;;14.0;;
63690;SDS011;49837;57.280;27.070;2023-12-14T00:15:20;27.8;;;15.1;;
63690;SDS011;49837;57.280;27.070;2023-12-14T00:16:20;28.7;;;15.7;;
63690;SDS011;49837;57.280;27.070;2023-12-14T00:17:20;39.8;;;19.4;;
63690;SDS011;49837;57.280;27.070;2023-12-14T00:18:22;32.8;;;17.0;;
63690;SDS011;49837;57.280;27.070;2023-12-14T00:19:23;31.9;;;16.4;;
63690;SDS011;49837;57.280;27.070;2023-12-14T00:20:22;31.6;;;16.8;;
63690;SDS011;49837;57.280;27.070;2023-12-14T00:21:22;35.5;;;17.5;;
63690;SDS011;49837;57.280;27.070;2023-12-14T00:22:26;27.6;;;15.0;;
63690;SDS011;49837;57.280;27.070;2023-12-14T00:23:23;24.9;;;13.8;;
63690;SDS011;49837;57.280;27.070;2023-12-14T00:24:23;35.7;;;17.1;;
63690;SDS011;49837;57.280;27.070;2023-12-14T00:25:24;38.8;;;17.9;;
63690;SDS011;49837;57.280;27.070;2023-12-14T00:26:24;44.1;;;20.1;;
63690;SDS011;49837;57.280;27.070;2023-12-14T00:27:24;39.9;;;17.2;;
63690;SDS011;49837;57.280;27.070;2023-12-14T00:28:25;33.6;;;16.7;;
63690;SDS011;49837;57.280;27.070;2023-12-14T00:29:26;27.3;;;14.5;;
63690;SDS011;49837;57.280;27.070;2023-12-14T00:30:27;31.0;;;15.2;;
63690;SDS011;49837;57.280;27.070;2023-12-14T00:31:27;33.5;;;15.7;;
63690;SDS011;49837;57.280;27.070;2023-12-14T00:32:27;25.2;;;13.9;;
63690;SDS011;49837;57.280;27.070;2023-12-14T00:33:28;26.0;;;14.7;;
63690;SDS011;49837;57.280;27.070;2023-12-14T00:34:28;25.8;;;13.5;;
63690;SDS011;49837;57.280;27.070;2023-12-14T00:35:28;25.0;;;13.9;;
63690;SDS011;49837;57.280;27.070;2023-12-14T00:36:29;26.5;;;14.3;;
63690;SDS011;49837;57.280;27.070;2023-12-14T00:37:29;27.1;;;14.8;;
63690;SDS011;49837;57.280;27.070;2023-12-14T00:38:29;27.5;;;14.6;;
63690;SDS011;49837;57.280;27.070;2023-12-14T00:39:30;28.7;;;15.0;;
63690;SDS011;49837;57.280;27.070;2023-12-14T00:40:30;27.2;;;14.8;;
63690;SDS011;49837;57.280;27.070;2023-12-14T00:41:30;27.2;;;14.8;;
63690;SDS011;49837;57.280;27.070;2023-12-14T00:42:31;27.9;;;15.2;;
63690;SDS011;49837;57.280;27.070;2023-12-14T00:43:31;34.1;;;16.9;;
63690;SDS011;49837;57.280;27.070;2023-12-14T00:44:31;43.4;;;19.1;;
63690;SDS011;49837;57.280;27.070;2023-12-14T00:45:32;47.7;;;20.1;;
63690;SDS011;49837;57.280;27.070;2023-12-14T00:46:32;53.4;;;21.7;;
63690;SDS011;49837;57.280;27.070;2023-12-14T00:47:32;28.6;;;15.3;;
63690;SDS011;49837;57.280;27.070;2023-12-14T00:48:33;24.9;;;14.6;;
63690;SDS011;49837;57.280;27.070;2023-12-14T00:49:33;28.6;;;14.4;;
63690;SDS011;49837;57.280;27.070;2023-12-14T00:50:36;26.9;;;14.1;;
63690;SDS011;49837;57.280;27.070;2023-12-14T00:51:34;27.3;;;15.4;;
63690;SDS011;49837;57.280;27.070;2023-12-14T00:52:34;28.8;;;15.4;;
63690;SDS011;49837;57.280;27.070;2023-12-14T00:53:37;28.1;;;15.3;;
63690;SDS011;49837;57.280;27.070;2023-12-14T00:54:35;37.4;;;17.6;;
63690;SDS011;49837;57.280;27.070;2023-12-14T00:55:35;33.3;;;17.3;;
63690;SDS011;49837;57.280;27.070;2023-12-14T00:56:35;34.9;;;17.8;;
63690;SDS011;49837;57.280;27.070;2023-12-14T00:57:36;30.0;;;16.1;;
63690;SDS011;49837;57.280;27.070;2023-12-14T00:58:36;31.4;;;16.3;;
63690;SDS011;49837;57.280;27.070;2023-12-14T00:59:36;27.9;;;15.2;;
63690;SDS011;49837;57.280;27.070;2023-12-14T01:00:37;29.6;;;15.6;;
63690;SDS011;49837;57.280;27.070;2023-12-14T01:01:37;31.7;;;16.8;;
63690;SDS011;49837;57.280;27.070;2023-12-14T01:02:38;31.8;;;16.8;;
63690;SDS011;49837;57.280;27.070;2023-12-14T01:03:38;32.9;;;17.4;;
63690;SDS011;49837;57.280;27.070;2023-12-14T01:04:38;43.5;;;20.6;;
63690;SDS011;49837;57.280;27.070;2023-12-14T01:05:38;31.8;;;16.6;;
63690;SDS011;49837;57.280;27.070;2023-12-14T01:06:39;46.5;;;23.6;;
63690;SDS011;49837;57.280;27.070;2023-12-14T01:07:39;68.4;;;32.6;;
63690;SDS011;49837;57.280;27.070;2023-12-14T01:08:40;43.8;;;20.9;;
63690;SDS011;49837;57.280;27.070;2023-12-14T01:09:40;62.7;;;29.0;;
63690;SDS011;49837;57.280;27.070;2023-12-14T01:10:40;34.3;;;17.4;;
63690;SDS011;49837;57.280;27.070;2023-12-14T01:11:41;31.5;;;17.0;;
63690;SDS011;49837;57.280;27.070;2023-12-14T01:12:41;34.3;;;18.2;;
63690;SDS011;49837;57.280;27.070;2023-12-14T01:13:41;30.1;;;15.8;;
63690;SDS011;49837;57.280;27.070;2023-12-14T01:14:41;29.3;;;15.8;;
63690;SDS011;49837;57.280;27.070;2023-12-14T01:15:42;37.7;;;19.5;;
63690;SDS011;49837;57.280;27.070;2023-12-14T01:16:42;39.0;;;20.0;;
63690;SDS011;49837;57.280;27.070;2023-12-14T01:17:43;33.9;;;17.8;;
63690;SDS011;49837;57.280;27.070;2023-12-14T01:18:43;34.2;;;17.6;;
63690;SDS011;49837;57.280;27.070;2023-12-14T01:19:43;28.8;;;15.7;;
63690;SDS011;49837;57.280;27.070;2023-12-14T01:20:44;28.0;;;15.3;;
63690;SDS011;49837;57.280;27.070;2023-12-14T01:21:44;49.6;;;27.8;;
63690;SDS011;49837;57.280;27.070;2023-12-14T01:22:44;57.6;;;31.4;;
63690;SDS011;49837;57.280;27.070;2023-12-14T01:23:45;49.3;;;28.4;;
63690;SDS011;49837;57.280;27.070;2023-12-14T01:24:45;43.3;;;24.2;;
63690;SDS011;49837;57.280;27.070;2023-12-14T01:25:45;49.3;;;24.4;;
63690;SDS011;49837;57.280;27.070;2023-12-14T01:26:46;47.9;;;24.8;;
63690;SDS011;49837;57.280;27.070;2023-12-14T01:27:46;45.4;;;23.2;;
63690;SDS011;49837;57.280;27.070;2023-12-14T01:28:46;37.7;;;19.6;;
63690;SDS011;49837;57.280;27.070;2023-12-14T01:29:47;37.2;;;19.1;;
63690;SDS011;49837;57.280;27.070;2023-12-14T01:30:47;30.1;;;17.0;;
63690;SDS011;49837;57.280;27.070;2023-12-14T01:31:49;32.8;;;17.5;;
63690;SDS011;49837;57.280;27.070;2023-12-14T01:32:48;42.5;;;22.6;;
63690;SDS011;49837;57.280;27.070;2023-12-14T01:33:48;58.7;;;27.8;;
63690;SDS011;49837;57.280;27.070;2023-12-14T01:34:48;41.0;;;22.4;;
63690;SDS011;49837;57.280;27.070;2023-12-14T01:35:49;36.9;;;20.2;;
63690;SDS011;49837;57.280;27.070;2023-12-14T01:36:49;33.2;;;19.0;;
63690;SDS011;49837;57.280;27.070;2023-12-14T01:37:50;35.8;;;27.7;;
63690;SDS011;49837;57.280;27.070;2023-12-14T01:38:50;35.0;;;27.0;;
63690;SDS011;49837;57.280;27.070;2023-12-14T01:39:50;39.7;;;29.8;;
63690;SDS011;49837;57.280;27.070;2023-12-14T01:40:51;38.8;;;29.8;;
63690;SDS011;49837;57.280;27.070;2023-12-14T01:41:51;33.6;;;24.6;;
63690;SDS011;49837;57.280;27.070;2023-12-14T01:42:51;26.4;;;17.2;;
63690;SDS011;49837;57.280;27.070;2023-12-14T01:43:52;37.9;;;21.2;;
63690;SDS011;49837;57.280;27.070;2023-12-14T01:44:52;30.6;;;20.2;;
63690;SDS011;49837;57.280;27.070;2023-12-14T01:45:52;26.3;;;16.9;;
63690;SDS011;49837;57.280;27.070;2023-12-14T01:46:53;32.3;;;26.0;;
63690;SDS011;49837;57.280;27.070;2023-12-14T01:47:53;28.1;;;21.2;;
63690;SDS011;49837;57.280;27.070;2023-12-14T01:48:53;33.3;;;18.4;;
63690;SDS011;49837;57.280;27.070;2023-12-14T01:49:54;43.8;;;21.7;;
63690;SDS011;49837;57.280;27.070;2023-12-14T01:50:54;32.1;;;19.1;;
63690;SDS011;49837;57.280;27.070;2023-12-14T01:51:54;25.8;;;15.5;;
63690;SDS011;49837;57.280;27.070;2023-12-14T01:52:57;27.2;;;15.5;;
63690;SDS011;49837;57.280;27.070;2023-12-14T01:53:55;24.5;;;14.7;;
63690;SDS011;49837;57.280;27.070;2023-12-14T01:54:55;25.5;;;15.2;;
63690;SDS011;49837;57.280;27.070;2023-12-14T01:55:56;30.2;;;19.3;;
63690;SDS011;49837;57.280;27.070;2023-12-14T01:56:56;32.0;;;27.4;;
63690;SDS011;49837;57.280;27.070;2023-12-14T01:57:59;27.0;;;18.4;;
63690;SDS011;49837;57.280;27.070;2023-12-14T01:58:57;25.1;;;14.9;;
63690;SDS011;49837;57.280;27.070;2023-12-14T01:59:57;22.7;;;14.5;;
63690;SDS011;49837;57.280;27.070;2023-12-14T02:01:06;22.1;;;13.2;;
63690;SDS011;49837;57.280;27.070;2023-12-14T02:02:00;22.1;;;13.7;;
63690;SDS011;49837;57.280;27.070;2023-12-14T02:03:01;22.6;;;13.6;;
63690;SDS011;49837;57.280;27.070;2023-12-14T02:04:01;22.9;;;15.7;;
63690;SDS011;49837;57.280;27.070;2023-12-14T02:05:01;24.7;;;15.5;;
63690;SDS011;49837;57.280;27.070;2023-12-14T02:06:02;22.4;;;13.9;;
63690;SDS011;49837;57.280;27.070;2023-12-14T02:07:02;25.0;;;15.7;;
63690;SDS011;49837;57.280;27.070;2023-12-14T02:08:02;25.1;;;16.6;;
63690;SDS011;49837;57.280;27.070;2023-12-14T02:09:03;27.4;;;17.8;;
63690;SDS011;49837;57.280;27.070;2023-12-14T02:10:03;28.5;;;16.7;;
63690;SDS011;49837;57.280;27.070;2023-12-14T02:11:03;24.4;;;15.3;;
63690;SDS011;49837;57.280;27.070;2023-12-14T02:12:04;26.3;;;15.4;;
63690;SDS011;49837;57.280;27.070;2023-12-14T02:13:04;23.1;;;14.8;;
63690;SDS011;49837;57.280;27.070;2023-12-14T02:14:08;21.1;;;13.7;;
63690;SDS011;49837;57.280;27.070;2023-12-14T02:15:06;23.3;;;14.7;;
63690;SDS011;49837;57.280;27.070;2023-12-14T02:16:07;22.1;;;14.2;;
63690;SDS011;49837;57.280;27.070;2023-12-14T02:17:07;23.0;;;15.2;;
63690;SDS011;49837;57.280;27.070;2023-12-14T02:18:07;32.1;;;19.0;;
63690;SDS011;49837;57.280;27.070;2023-12-14T02:19:08;28.0;;;17.5;;
63690;SDS011;49837;57.280;27.070;2023-12-14T02:20:08;25.8;;;15.9;;
63690;SDS011;49837;57.280;27.070;2023-12-14T02:21:08;24.1;;;15.1;;
63690;SDS011;49837;57.280;27.070;2023-12-14T02:22:10;25.1;;;16.0;;
63690;SDS011;49837;57.280;27.070;2023-12-14T02:23:09;25.3;;;18.2;;
63690;SDS011;49837;57.280;27.070;2023-12-14T02:24:09;24.6;;;16.1;;
63690;SDS011;49837;57.280;27.070;2023-12-14T02:25:10;23.2;;;14.8;;
63690;SDS011;49837;57.280;27.070;2023-12-14T02:26:10;23.8;;;15.2;;
63690;SDS011;49837;57.280;27.070;2023-12-14T02:27:10;21.9;;;14.5;;
63690;SDS011;49837;57.280;27.070;2023-12-14T02:28:11;24.6;;;14.4;;
63690;SDS011;49837;57.280;27.070;2023-12-14T02:29:14;28.4;;;16.4;;
63690;SDS011;49837;57.280;27.070;2023-12-14T02:30:12;26.4;;;16.3;;
63690;SDS011;49837;57.280;27.070;2023-12-14T02:31:12;21.7;;;14.7;;
63690;SDS011;49837;57.280;27.070;2023-12-14T02:32:12;24.2;;;16.2;;
63690;SDS011;49837;57.280;27.070;2023-12-14T02:33:12;25.8;;;15.8;;
63690;SDS011;49837;57.280;27.070;2023-12-14T02:34:13;29.0;;;21.7;;
63690;SDS011;49837;57.280;27.070;2023-12-14T02:35:13;25.6;;;18.7;;
63690;SDS011;49837;57.280;27.070;2023-12-14T02:36:16;26.8;;;20.7;;
63690;SDS011;49837;57.280;27.070;2023-12-14T02:37:14;26.8;;;20.1;;
63690;SDS011;49837;57.280;27.070;2023-12-14T02:38:14;27.2;;;18.2;;
63690;SDS011;49837;57.280;27.070;2023-12-14T02:39:14;25.3;;;16.2;;
63690;SDS011;49837;57.280;27.070;2023-12-14T02:40:15;23.8;;;16.4;;
63690;SDS011;49837;57.280;27.070;2023-12-14T02:41:15;24.9;;;16.9;;
63690;SDS011;49837;57.280;27.070;2023-12-14T02:42:15;23.7;;;16.4;;
63690;SDS011;49837;57.280;27.070;2023-12-14T02:43:16;22.0;;;14.7;;
63690;SDS011;49837;57.280;27.070;2023-12-14T02:44:16;20.6;;;13.4;;
63690;SDS011;49837;57.280;27.070;2023-12-14T02:45:16;22.5;;;14.1;;
63690;SDS011;49837;57.280;27.070;2023-12-14T02:46:17;22.9;;;15.2;;
63690;SDS011;49837;57.280;27.070;2023-12-14T02:47:17;25.1;;;15.8;;
63690;SDS011;49837;57.280;27.070;2023-12-14T02:48:17;25.6;;;16.2;;
63690;SDS011;49837;57.280;27.070;2023-12-14T02:49:18;31.1;;;15.9;;
63690;SDS011;49837;57.280;27.070;2023-12-14T02:50:18;24.6;;;16.0;;
63690;SDS011;49837;57.280;27.070;2023-12-14T02:51:18;22.1;;;14.5;;
63690;SDS011;49837;57.280;27.070;2023-12-14T02:52:19;20.9;;;14.5;;
63690;SDS011;49837;57.280;27.070;2023-12-14T02:53:19;25.2;;;15.3;;
63690;SDS011;49837;57.280;27.070;2023-12-14T02:54:19;23.6;;;15.1;;
63690;SDS011;49837;57.280;27.070;2023-12-14T02:55:20;24.5;;;16.1;;
63690;SDS011;49837;57.280;27.070;2023-12-14T02:56:20;22.5;;;14.3;;
63690;SDS011;49837;57.280;27.070;2023-12-14T02:57:20;22.0;;;14.6;;
63690;SDS011;49837;57.280;27.070;2023-12-14T02:58:21;23.2;;;14.5;;
63690;SDS011;49837;57.280;27.070;2023-12-14T02:59:21;23.7;;;14.7;;
63690;SDS011;49837;57.280;27.070;2023-12-14T03:00:21;26.2;;;15.7;;
63690;SDS011;49837;57.280;27.070;2023-12-14T03:01:22;24.3;;;15.7;;
63690;SDS011;49837;57.280;27.070;2023-12-14T03:02:22;26.2;;;15.4;;
63690;SDS011;49837;57.280;27.070;2023-12-14T03:03:23;26.6;;;16.0;;
63690;SDS011;49837;57.280;27.070;2023-12-14T03:04:23;26.1;;;15.6;;
63690;SDS011;49837;57.280;27.070;2023-12-14T03:05:23;23.0;;;14.1;;
63690;SDS011;49837;57.280;27.070;2023-12-14T03:06:25;22.9;;;14.2;;
63690;SDS011;49837;57.280;27.070;2023-12-14T03:07:24;24.9;;;14.3;;
63690;SDS011;49837;57.280;27.070;2023-12-14T03:08:24;23.7;;;14.5;;
63690;SDS011;49837;57.280;27.070;2023-12-14T03:09:24;21.8;;;13.8;;
63690;SDS011;49837;57.280;27.070;2023-12-14T03:10:25;23.6;;;14.2;;
63690;SDS011;49837;57.280;27.070;2023-12-14T03:11:25;24.2;;;15.0;;
63690;SDS011;49837;57.280;27.070;2023-12-14T03:12:25;25.1;;;14.5;;
63690;SDS011;49837;57.280;27.070;2023-12-14T03:13:26;24.1;;;14.7;;
63690;SDS011;49837;57.280;27.070;2023-12-14T03:14:31;22.0;;;14.5;;
63690;SDS011;49837;57.280;27.070;2023-12-14T03:15:30;21.1;;;13.6;;
63690;SDS011;49837;57.280;27.070;2023-12-14T03:16:30;19.1;;;12.7;;
63690;SDS011;49837;57.280;27.070;2023-12-14T03:17:30;21.6;;;13.6;;
63690;SDS011;49837;57.280;27.070;2023-12-14T03:18:31;19.7;;;13.7;;
63690;SDS011;49837;57.280;27.070;2023-12-14T03:19:31;21.7;;;13.4;;
63690;SDS011;49837;57.280;27.070;2023-12-14T03:20:31;20.3;;;13.0;;
63690;SDS011;49837;57.280;27.070;2023-12-14T03:21:31;21.3;;;13.7;;
63690;SDS011;49837;57.280;27.070;2023-12-14T03:22:32;19.4;;;13.1;;
63690;SDS011;49837;57.280;27.070;2023-12-14T03:23:32;20.9;;;13.2;;
63690;SDS011;49837;57.280;27.070;2023-12-14T03:24:33;19.6;;;12.9;;
63690;SDS011;49837;57.280;27.070;2023-12-14T03:25:36;21.2;;;14.0;;
63690;SDS011;49837;57.280;27.070;2023-12-14T03:26:34;19.4;;;13.1;;
63690;SDS011;49837;57.280;27.070;2023-12-14T03:27:34;20.5;;;14.1;;
63690;SDS011;49837;57.280;27.070;2023-12-14T03:28:35;19.9;;;12.6;;
63690;SDS011;49837;57.280;27.070;2023-12-14T03:29:35;20.8;;;13.4;;
63690;SDS011;49837;57.280;27.070;2023-12-14T03:30:35;19.8;;;13.5;;
63690;SDS011;49837;57.280;27.070;2023-12-14T03:31:36;24.3;;;14.4;;
63690;SDS011;49837;57.280;27.070;2023-12-14T03:32:36;19.0;;;12.7;;
63690;SDS011;49837;57.280;27.070;2023-12-14T03:33:36;18.9;;;12.7;;
63690;SDS011;49837;57.280;27.070;2023-12-14T03:34:36;20.0;;;12.7;;
63690;SDS011;49837;57.280;27.070;2023-12-14T03:35:37;23.5;;;15.0;;
63690;SDS011;49837;57.280;27.070;2023-12-14T03:36:37;27.6;;;16.6;;
63690;SDS011;49837;57.280;27.070;2023-12-14T03:37:38;21.7;;;14.0;;
63690;SDS011;49837;57.280;27.070;2023-12-14T03:38:38;20.0;;;13.1;;
63690;SDS011;49837;57.280;27.070;2023-12-14T03:39:38;19.9;;;12.4;;
63690;SDS011;49837;57.280;27.070;2023-12-14T03:40:39;17.0;;;11.9;;
63690;SDS011;49837;57.280;27.070;2023-12-14T03:41:39;17.5;;;12.1;;
63690;SDS011;49837;57.280;27.070;2023-12-14T03:42:39;19.1;;;13.2;;
63690;SDS011;49837;57.280;27.070;2023-12-14T03:43:40;17.8;;;11.9;;
63690;SDS011;49837;57.280;27.070;2023-12-14T03:44:40;17.0;;;12.2;;
63690;SDS011;49837;57.280;27.070;2023-12-14T03:45:40;17.3;;;11.8;;
63690;SDS011;49837;57.280;27.070;2023-12-14T03:46:41;17.4;;;11.9;;
63690;SDS011;49837;57.280;27.070;2023-12-14T03:47:41;15.8;;;11.5;;
63690;SDS011;49837;57.280;27.070;2023-12-14T03:48:41;16.8;;;11.6;;
63690;SDS011;49837;57.280;27.070;2023-12-14T03:49:42;16.0;;;11.2;;
63690;SDS011;49837;57.280;27.070;2023-12-14T03:50:46;17.7;;;12.3;;
63690;SDS011;49837;57.280;27.070;2023-12-14T03:51:42;15.8;;;11.1;;
63690;SDS011;49837;57.280;27.070;2023-12-14T03:52:43;17.5;;;11.8;;
63690;SDS011;49837;57.280;27.070;2023-12-14T03:53:43;18.8;;;12.3;;
63690;SDS011;49837;57.280;27.070;2023-12-14T03:54:46;16.6;;;11.4;;
63690;SDS011;49837;57.280;27.070;2023-12-14T03:55:44;16.3;;;11.3;;
63690;SDS011;49837;57.280;27.070;2023-12-14T03:56:44;15.9;;;11.5;;
63690;SDS011;49837;57.280;27.070;2023-12-14T03:57:44;16.0;;;11.6;;
63690;SDS011;49837;57.280;27.070;2023-12-14T03:58:45;18.7;;;12.8;;
63690;SDS011;49837;57.280;27.070;2023-12-14T03:59:45;19.4;;;13.6;;
63690;SDS011;49837;57.280;27.070;2023-12-14T04:00:46;18.0;;;12.5;;
63690;SDS011;49837;57.280;27.070;2023-12-14T04:01:46;18.5;;;12.7;;
63690;SDS011;49837;57.280;27.070;2023-12-14T04:02:46;17.2;;;12.2;;
63690;SDS011;49837;57.280;27.070;2023-12-14T04:03:47;17.8;;;12.4;;
63690;SDS011;49837;57.280;27.070;2023-12-14T04:04:47;18.2;;;11.7;;
63690;SDS011;49837;57.280;27.070;2023-12-14T04:05:47;23.1;;;15.5;;
63690;SDS011;49837;57.280;27.070;2023-12-14T04:06:50;26.3;;;17.7;;
63690;SDS011;49837;57.280;27.070;2023-12-14T04:07:48;19.8;;;13.5;;
63690;SDS011;49837;57.280;27.070;2023-12-14T04:08:48;17.7;;;12.8;;
63690;SDS011;49837;57.280;27.070;2023-12-14T04:09:50;16.8;;;11.9;;
63690;SDS011;49837;57.280;27.070;2023-12-14T04:10:49;15.6;;;11.0;;
63690;SDS011;49837;57.280;27.070;2023-12-14T04:11:49;15.7;;;10.8;;
63690;SDS011;49837;57.280;27.070;2023-12-14T04:12:50;16.3;;;11.7;;
63690;SDS011;49837;57.280;27.070;2023-12-14T04:13:50;16.5;;;11.2;;
63690;SDS011;49837;57.280;27.070;2023-12-14T04:14:50;16.9;;;11.9;;
63690;SDS011;49837;57.280;27.070;2023-12-14T04:15:50;16.4;;;11.5;;
63690;SDS011;49837;57.280;27.070;2023-12-14T04:16:51;17.5;;;12.0;;
63690;SDS011;49837;57.280;27.070;2023-12-14T04:17:51;16.4;;;11.8;;
63690;SDS011;49837;57.280;27.070;2023-12-14T04:18:52;15.3;;;11.1;;
63690;SDS011;49837;57.280;27.070;2023-12-14T04:19:52;16.8;;;11.6;;
63690;SDS011;49837;57.280;27.070;2023-12-14T04:20:52;17.6;;;12.4;;
63690;SDS011;49837;57.280;27.070;2023-12-14T04:21:53;17.0;;;12.3;;
63690;SDS011;49837;57.280;27.070;2023-12-14T04:22:53;17.5;;;12.0;;
63690;SDS011;49837;57.280;27.070;2023-12-14T04:23:53;18.0;;;12.5;;
63690;SDS011;49837;57.280;27.070;2023-12-14T04:24:54;17.6;;;13.0;;
63690;SDS011;49837;57.280;27.070;2023-12-14T04:25:54;16.5;;;11.7;;
63690;SDS011;49837;57.280;27.070;2023-12-14T04:26:54;19.1;;;11.8;;
63690;SDS011;49837;57.280;27.070;2023-12-14T04:27:55;16.1;;;11.6;;
63690;SDS011;49837;57.280;27.070;2023-12-14T04:28:55;28.7;;;25.8;;
63690;SDS011;49837;57.280;27.070;2023-12-14T04:29:55;26.2;;;22.9;;
63690;SDS011;49837;57.280;27.070;2023-12-14T04:30:56;25.5;;;21.0;;
63690;SDS011;49837;57.280;27.070;2023-12-14T04:31:56;25.8;;;21.4;;
63690;SDS011;49837;57.280;27.070;2023-12-14T04:32:56;22.7;;;18.3;;
63690;SDS011;49837;57.280;27.070;2023-12-14T04:33:57;20.5;;;15.9;;
63690;SDS011;49837;57.280;27.070;2023-12-14T04:34:57;21.4;;;14.6;;
63690;SDS011;49837;57.280;27.070;2023-12-14T04:35:57;17.5;;;11.6;;
63690;SDS011;49837;57.280;27.070;2023-12-14T04:36:58;16.4;;;12.0;;
63690;SDS011;49837;57.280;27.070;2023-12-14T04:37:58;17.2;;;11.6;;
63690;SDS011;49837;57.280;27.070;2023-12-14T04:38:58;24.0;;;21.5;;
63690;SDS011;49837;57.280;27.070;2023-12-14T04:39:59;20.3;;;16.9;;
63690;SDS011;49837;57.280;27.070;2023-12-14T04:41:02;18.2;;;14.2;;
63690;SDS011;49837;57.280;27.070;2023-12-14T04:42:00;20.0;;;14.8;;
63690;SDS011;49837;57.280;27.070;2023-12-14T04:43:00;18.8;;;13.7;;
63690;SDS011;49837;57.280;27.070;2023-12-14T04:44:01;23.6;;;15.2;;
63690;SDS011;49837;57.280;27.070;2023-12-14T04:45:01;19.7;;;13.5;;
63690;SDS011;49837;57.280;27.070;2023-12-14T04:46:01;15.8;;;11.6;;
63690;SDS011;49837;57.280;27.070;2023-12-14T04:47:02;17.8;;;11.7;;
63690;SDS011;49837;57.280;27.070;2023-12-14T04:48:02;17.0;;;11.3;;
63690;SDS011;49837;57.280;27.070;2023-12-14T04:49:02;15.0;;;11.1;;
63690;SDS011;49837;57.280;27.070;2023-12-14T04:50:03;16.0;;;11.1;;
63690;SDS011;49837;57.280;27.070;2023-12-14T04:51:03;16.1;;;11.3;;
63690;SDS011;49837;57.280;27.070;2023-12-14T04:52:03;16.5;;;11.6;;
63690;SDS011;49837;57.280;27.070;2023-12-14T04:53:04;16.7;;;11.5;;
63690;SDS011;49837;57.280;27.070;2023-12-14T04:54:04;17.7;;;12.3;;
63690;SDS011;49837;57.280;27.070;2023-12-14T04:55:05;19.9;;;13.5;;
63690;SDS011;49837;57.280;27.070;2023-12-14T04:56:05;19.1;;;12.6;;
63690;SDS011;49837;57.280;27.070;2023-12-14T04:57:06;19.2;;;11.3;;
63690;SDS011;49837;57.280;27.070;2023-12-14T04:58:06;16.7;;;12.4;;
63690;SDS011;49837;57.280;27.070;2023-12-14T04:59:07;17.0;;;11.6;;
63690;SDS011;49837;57.280;27.070;2023-12-14T05:00:07;15.6;;;11.1;;
63690;SDS011;49837;57.280;27.070;2023-12-14T05:01:07;17.4;;;11.2;;
63690;SDS011;49837;57.280;27.070;2023-12-14T05:02:08;16.4;;;11.6;;
63690;SDS011;49837;57.280;27.070;2023-12-14T05:03:08;17.1;;;12.6;;
63690;SDS011;49837;57.280;27.070;2023-12-14T05:04:09;18.2;;;13.2;;
63690;SDS011;49837;57.280;27.070;2023-12-14T05:05:09;17.8;;;13.2;;
63690;SDS011;49837;57.280;27.070;2023-12-14T05:06:12;17.8;;;13.5;;
63690;SDS011;49837;57.280;27.070;2023-12-14T05:07:09;17.1;;;13.4;;
63690;SDS011;49837;57.280;27.070;2023-12-14T05:08:10;17.6;;;13.1;;
63690;SDS011;49837;57.280;27.070;2023-12-14T05:09:10;18.7;;;12.7;;
63690;SDS011;49837;57.280;27.070;2023-12-14T05:10:11;19.2;;;12.4;;
63690;SDS011;49837;57.280;27.070;2023-12-14T05:11:14;20.6;;;13.1;;
63690;SDS011;49837;57.280;27.070;2023-12-14T05:12:11;19.1;;;12.9;;
63690;SDS011;49837;57.280;27.070;2023-12-14T05:13:12;17.8;;;12.5;;
63690;SDS011;49837;57.280;27.070;2023-12-14T05:14:12;18.0;;;12.7;;
63690;SDS011;49837;57.280;27.070;2023-12-14T05:15:12;18.2;;;13.5;;
63690;SDS011;49837;57.280;27.070;2023-12-14T05:16:16;19.6;;;14.0;;
63690;SDS011;49837;57.280;27.070;2023-12-14T05:17:13;18.0;;;12.9;;
63690;SDS011;49837;57.280;27.070;2023-12-14T05:18:16;16.9;;;12.5;;
63690;SDS011;49837;57.280;27.070;2023-12-14T05:19:14;16.2;;;12.2;;
63690;SDS011;49837;57.280;27.070;2023-12-14T05:20:15;16.8;;;11.3;;
63690;SDS011;49837;57.280;27.070;2023-12-14T05:21:18;16.5;;;11.6;;
63690;SDS011;49837;57.280;27.070;2023-12-14T05:22:15;17.4;;;12.2;;
63690;SDS011;49837;57.280;27.070;2023-12-14T05:23:16;17.6;;;11.4;;
63690;SDS011;49837;57.280;27.070;2023-12-14T05:24:19;16.3;;;11.3;;
63690;SDS011;49837;57.280;27.070;2023-12-14T05:25:16;16.5;;;11.1;;
63690;SDS011;49837;57.280;27.070;2023-12-14T05:26:17;16.1;;;11.1;;
63690;SDS011;49837;57.280;27.070;2023-12-14T05:27:17;16.4;;;12.0;;
63690;SDS011;49837;57.280;27.070;2023-12-14T05:28:18;19.9;;;13.3;;
63690;SDS011;49837;57.280;27.070;2023-12-14T05:29:18;23.2;;;14.1;;
63690;SDS011;49837;57.280;27.070;2023-12-14T05:30:19;23.4;;;13.5;;
63690;SDS011;49837;57.280;27.070;2023-12-14T05:31:18;25.0;;;13.5;;
63690;SDS011;49837;57.280;27.070;2023-12-14T05:32:19;18.1;;;11.6;;
63690;SDS011;49837;57.280;27.070;2023-12-14T05:33:19;15.9;;;11.3;;
63690;SDS011;49837;57.280;27.070;2023-12-14T05:34:19;17.2;;;10.9;;
63690;SDS011;49837;57.280;27.070;2023-12-14T05:35:20;16.8;;;11.8;;
63690;SDS011;49837;57.280;27.070;2023-12-14T05:36:20;16.2;;;11.1;;
63690;SDS011;49837;57.280;27.070;2023-12-14T05:37:20;17.2;;;11.4;;
63690;SDS011;49837;57.280;27.070;2023-12-14T05:38:21;16.0;;;11.1;;
63690;SDS011;49837;57.280;27.070;2023-12-14T05:39:21;18.5;;;12.4;;
63690;SDS011;49837;57.280;27.070;2023-12-14T05:40:21;17.5;;;11.6;;
63690;SDS011;49837;57.280;27.070;2023-12-14T05:41:22;19.4;;;12.6;;
63690;SDS011;49837;57.280;27.070;2023-12-14T05:42:22;18.6;;;12.4;;
63690;SDS011;49837;57.280;27.070;2023-12-14T05:43:23;18.3;;;12.0;;
63690;SDS011;49837;57.280;27.070;2023-12-14T05:44:23;24.5;;;14.3;;
63690;SDS011;49837;57.280;27.070;2023-12-14T05:45:23;33.1;;;16.4;;
63690;SDS011;49837;57.280;27.070;2023-12-14T05:46:23;19.1;;;12.1;;
63690;SDS011;49837;57.280;27.070;2023-12-14T05:47:25;16.3;;;11.2;;
63690;SDS011;49837;57.280;27.070;2023-12-14T05:48:24;16.1;;;12.0;;
63690;SDS011;49837;57.280;27.070;2023-12-14T05:49:25;16.3;;;11.7;;
63690;SDS011;49837;57.280;27.070;2023-12-14T05:50:25;16.1;;;11.7;;
63690;SDS011;49837;57.280;27.070;2023-12-14T05:51:29;17.4;;;12.0;;
63690;SDS011;49837;57.280;27.070;2023-12-14T05:52:30;16.9;;;11.9;;
63690;SDS011;49837;57.280;27.070;2023-12-14T05:53:30;18.6;;;12.7;;
63690;SDS011;49837;57.280;27.070;2023-12-14T05:54:30;16.9;;;12.3;;
63690;SDS011;49837;57.280;27.070;2023-12-14T05:55:31;16.4;;;11.0;;
63690;SDS011;49837;57.280;27.070;2023-12-14T05:56:32;15.1;;;10.7;;
63690;SDS011;49837;57.280;27.070;2023-12-14T05:57:33;16.1;;;11.7;;